createdAt,value
2022-11-21T00:00:39.907Z,86.02
2022-11-21T00:03:06.425Z,86.10
2022-11-21T00:05:33.137Z,86.23
2022-11-21T00:07:59.678Z,85.74
2022-11-21T00:10:26.296Z,86.01
2022-11-21T00:12:56.725Z,85.37
2022-11-21T00:15:24.789Z,86.10
2022-11-21T00:17:51.693Z,86.17
2022-11-21T00:20:19.461Z,85.76
2022-11-21T00:22:46.283Z,86.64
2022-11-21T00:25:13.162Z,86.35
2022-11-21T00:27:39.882Z,87.03
2022-11-21T00:30:08.437Z,86.82
2022-11-21T00:32:34.965Z,87.08
2022-11-21T00:35:01.454Z,87.49
2022-11-21T00:37:28.091Z,87.10
2022-11-21T00:39:54.530Z,86.78
2022-11-21T00:42:20.987Z,86.32
2022-11-21T00:44:47.514Z,86.58
2022-11-21T00:47:14.039Z,86.42
2022-11-21T00:49:40.501Z,87.31
2022-11-21T00:52:06.974Z,87.27
2022-11-21T00:54:33.448Z,86.90
2022-11-21T00:57:00.105Z,87.79
2022-11-21T00:59:26.576Z,88.19
2022-11-21T01:01:53.031Z,88.33
2022-11-21T01:04:19.633Z,88.97
2022-11-21T01:06:46.153Z,89.09
2022-11-21T01:09:12.605Z,88.58
2022-11-21T01:11:39.045Z,88.42
2022-11-21T01:14:05.557Z,88.64
2022-11-21T01:16:32.230Z,87.99
2022-11-21T01:18:58.743Z,88.20
2022-11-21T01:21:30.267Z,88.23
2022-11-21T01:23:59.168Z,88.30
2022-11-21T01:26:28.018Z,89.04
2022-11-21T01:28:54.999Z,89.02
2022-11-21T01:31:23.638Z,88.64
2022-11-21T01:33:50.087Z,88.12
2022-11-21T01:36:18.959Z,88.47
2022-11-21T01:38:47.458Z,87.54
2022-11-21T01:41:16.733Z,87.56
2022-11-21T01:43:43.199Z,88.12
2022-11-21T01:46:09.538Z,87.37
2022-11-21T01:48:55.971Z,88.72
2022-11-21T01:51:32.451Z,88.60
2022-11-21T01:54:00.384Z,88.86
2022-11-21T01:56:28.983Z,88.56
2022-11-21T01:58:57.398Z,88.25
2022-11-21T02:01:24.198Z,88.04
2022-11-21T02:03:51.289Z,88.14
2022-11-21T02:06:17.764Z,88.48
2022-11-21T02:08:45.283Z,89.43
2022-11-21T02:11:26.054Z,90.68
2022-11-21T02:13:52.879Z,91.72
2022-11-21T02:16:19.320Z,92.54
2022-11-21T02:18:45.885Z,93.09
2022-11-21T02:21:50.888Z,94.44
2022-11-21T02:24:23.506Z,94.66
2022-11-21T02:26:50.226Z,95.35
2022-11-21T02:29:17.040Z,95.44
2022-11-21T02:31:43.476Z,95.58
2022-11-21T02:34:09.945Z,96.29
2022-11-21T02:37:02.672Z,96.21
2022-11-21T02:39:34.313Z,97.14
2022-11-21T02:42:27.967Z,96.57
2022-11-21T02:45:18.770Z,96.64
2022-11-21T02:47:45.309Z,95.43
2022-11-21T02:50:27.561Z,95.62
2022-11-21T02:52:55.375Z,94.78
2022-11-21T02:55:22.915Z,95.38
2022-11-21T02:57:49.426Z,95.51
2022-11-21T03:00:16.293Z,95.15
2022-11-21T03:02:42.833Z,95.19
2022-11-21T03:05:11.494Z,95.97
2022-11-21T03:07:38.152Z,96.10
2022-11-21T03:10:05.273Z,95.92
2022-11-21T03:12:31.752Z,96.43
2022-11-21T03:14:58.209Z,97.47
2022-11-21T03:17:24.668Z,98.22
2022-11-21T03:19:51.127Z,98.49
2022-11-21T03:22:17.574Z,99.16
2022-11-21T03:24:44.042Z,99.29
2022-11-21T03:27:10.500Z,98.99
2022-11-21T03:29:36.951Z,99.37
2022-11-21T03:32:03.453Z,99.94
2022-11-21T03:34:30.200Z,99.75
2022-11-21T03:36:56.778Z,100.00
2022-11-21T03:39:23.229Z,100.00
2022-11-21T03:41:49.732Z,100.00
2022-11-21T03:44:16.244Z,100.00
2022-11-21T03:46:44.266Z,100.00
2022-11-21T03:49:11.299Z,100.00
2022-11-21T03:51:37.967Z,100.00
2022-11-21T03:54:04.733Z,100.00
2022-11-21T03:56:31.220Z,100.00
2022-11-21T03:58:57.694Z,100.00
2022-11-21T04:01:24.317Z,100.00
2022-11-21T04:03:51.251Z,100.00
2022-11-21T04:06:19.636Z,100.00
2022-11-21T04:08:46.485Z,100.00
2022-11-21T04:11:13.281Z,100.00
2022-11-21T04:13:39.788Z,100.00
2022-11-21T04:16:06.391Z,100.00
2022-11-21T04:18:34.128Z,100.00
2022-11-21T04:21:02.966Z,100.00
2022-11-21T04:23:29.553Z,100.00
2022-11-21T04:25:56.006Z,100.00
2022-11-21T04:28:22.454Z,100.00
2022-11-21T04:30:49.060Z,100.00
2022-11-21T04:33:17.100Z,100.00
2022-11-21T04:35:44.353Z,100.00
2022-11-21T04:38:11.495Z,100.00
2022-11-21T04:40:38.283Z,100.00
2022-11-21T04:43:04.818Z,100.00
2022-11-21T04:45:31.679Z,100.00
2022-11-21T04:47:58.261Z,100.00
2022-11-21T04:50:24.776Z,100.00
2022-11-21T04:52:52.117Z,100.00
2022-11-21T04:55:19.451Z,100.00
2022-11-21T04:57:46.328Z,100.00
2022-11-21T05:00:14.291Z,100.00
2022-11-21T05:02:40.807Z,100.00
2022-11-21T05:05:07.460Z,100.00
2022-11-21T05:07:33.966Z,100.00
2022-11-21T05:10:00.503Z,100.00
2022-11-21T05:12:45.597Z,100.00
2022-11-21T05:15:12.058Z,100.00
2022-11-21T05:17:38.674Z,100.00
2022-11-21T05:20:05.599Z,100.00
2022-11-21T05:22:32.045Z,100.00
2022-11-21T05:24:58.574Z,100.00
2022-11-21T05:27:25.037Z,100.00
2022-11-21T05:29:51.506Z,100.00
2022-11-21T05:32:17.968Z,100.00
2022-11-21T05:34:44.523Z,100.00
2022-11-21T05:37:10.969Z,100.00
2022-11-21T05:39:37.438Z,100.00
2022-11-21T05:42:04.062Z,100.00
2022-11-21T05:44:30.948Z,100.00
2022-11-21T05:46:57.561Z,100.00
2022-11-21T05:49:24.055Z,100.00
2022-11-21T05:51:50.524Z,100.00
2022-11-21T05:54:17.290Z,100.00
2022-11-21T05:56:43.740Z,100.00
2022-11-21T05:59:13.288Z,100.00
2022-11-21T06:01:58.345Z,100.00
2022-11-21T06:04:24.958Z,100.00
2022-11-21T06:06:51.533Z,100.00
2022-11-21T06:09:17.985Z,100.00
2022-11-21T06:11:44.453Z,100.00
2022-11-21T06:14:11.013Z,100.00
2022-11-21T06:16:37.612Z,100.00
2022-11-21T06:19:04.117Z,100.00
2022-11-21T06:21:30.592Z,100.00
2022-11-21T06:23:58.165Z,100.00
2022-11-21T06:26:26.199Z,100.00
2022-11-21T06:28:53.022Z,100.00
2022-11-21T06:31:24.633Z,100.00
2022-11-21T06:33:55.674Z,100.00
2022-11-21T06:36:22.225Z,100.00
2022-11-21T06:38:48.910Z,100.00
2022-11-21T06:41:20.393Z,100.00
2022-11-21T06:43:46.917Z,100.00
2022-11-21T06:46:14.247Z,100.00
2022-11-21T06:48:41.491Z,100.00
2022-11-21T06:51:11.866Z,100.00
2022-11-21T06:53:38.348Z,100.00
2022-11-21T06:56:05.166Z,100.00
2022-11-21T06:58:31.803Z,100.00
2022-11-21T07:00:58.610Z,100.00
2022-11-21T07:03:25.063Z,100.00
2022-11-21T07:05:52.522Z,100.00
2022-11-21T07:08:19.004Z,100.00
2022-11-21T07:11:10.195Z,100.00
2022-11-21T07:13:32.464Z,100.00
2022-11-21T07:16:10.169Z,100.00
2022-11-21T07:18:36.967Z,100.00
2022-11-21T07:21:05.399Z,100.00
2022-11-21T07:23:32.812Z,100.00
2022-11-21T07:26:03.866Z,100.00
2022-11-21T07:28:30.755Z,100.00
2022-11-21T07:30:57.793Z,100.00
2022-11-21T07:33:24.347Z,100.00
2022-11-21T07:35:50.826Z,100.00
2022-11-21T07:38:17.302Z,100.00
2022-11-21T07:40:43.840Z,100.00
2022-11-21T07:43:11.173Z,100.00
2022-11-21T07:45:38.046Z,100.00
2022-11-21T07:48:07.154Z,100.00
2022-11-21T07:50:33.918Z,100.00
2022-11-21T07:53:07.827Z,100.00
2022-11-21T07:55:40.183Z,100.00
2022-11-21T07:58:12.838Z,100.00
2022-11-21T08:00:42.563Z,100.00
2022-11-21T08:03:09.129Z,100.00
2022-11-21T08:05:40.075Z,100.00
2022-11-21T08:08:07.055Z,100.00
2022-11-21T08:10:33.861Z,100.00
2022-11-21T08:13:00.346Z,100.00
2022-11-21T08:15:26.805Z,100.00
2022-11-21T08:17:53.269Z,100.00
2022-11-21T08:20:19.750Z,100.00
2022-11-21T08:22:46.228Z,100.00
2022-11-21T08:25:12.750Z,100.00
2022-11-21T08:27:40.079Z,100.00
2022-11-21T08:30:08.169Z,100.00
2022-11-21T08:32:34.739Z,100.00
2022-11-21T08:35:01.321Z,100.00
2022-11-21T08:37:30.994Z,100.00
2022-11-21T08:40:00.970Z,100.00
2022-11-21T08:42:27.707Z,100.00
2022-11-21T08:44:54.159Z,100.00
2022-11-21T08:47:20.767Z,100.00
2022-11-21T08:49:48.119Z,100.00
2022-11-21T08:52:17.155Z,100.00
2022-11-21T08:54:44.521Z,100.00
2022-11-21T08:57:11.210Z,100.00
2022-11-21T08:59:37.721Z,100.00
2022-11-21T09:02:04.302Z,100.00
2022-11-21T09:04:30.898Z,100.00
2022-11-21T09:06:57.491Z,100.00
2022-11-21T09:09:25.587Z,100.00
2022-11-21T09:11:52.344Z,100.00
2022-11-21T09:14:37.225Z,100.00
2022-11-21T09:17:25.026Z,100.00
2022-11-21T09:19:51.490Z,100.00
2022-11-21T09:22:17.964Z,100.00
2022-11-21T09:24:44.405Z,100.00
2022-11-21T09:27:10.858Z,100.00
2022-11-21T09:29:37.311Z,100.00
2022-11-21T09:32:03.768Z,100.00
2022-11-21T09:34:31.739Z,100.00
2022-11-21T09:36:58.344Z,100.00
2022-11-21T09:39:25.218Z,100.00
2022-11-21T09:42:34.274Z,100.00
2022-11-21T09:45:07.008Z,100.00
2022-11-21T09:47:37.026Z,100.00
2022-11-21T09:50:20.725Z,100.00
2022-11-21T09:52:49.620Z,100.00
2022-11-21T09:55:34.446Z,100.00
2022-11-21T09:58:03.455Z,100.00
2022-11-21T10:00:30.417Z,100.00
2022-11-21T10:02:57.375Z,100.00
2022-11-21T10:05:33.617Z,100.00
2022-11-21T10:08:07.417Z,100.00
2022-11-21T10:10:33.815Z,100.00
2022-11-21T10:13:11.147Z,100.00
2022-11-21T10:16:06.820Z,100.00
2022-11-21T10:18:58.295Z,100.00
2022-11-21T10:21:24.620Z,100.00
2022-11-21T10:24:29.058Z,100.00
2022-11-21T10:27:02.480Z,100.00
2022-11-21T10:29:39.102Z,100.00
2022-11-21T10:32:22.922Z,100.00
2022-11-21T10:34:49.305Z,100.00
2022-11-21T10:37:16.587Z,100.00
2022-11-21T10:39:49.512Z,100.00
2022-11-21T10:42:34.678Z,100.00
2022-11-21T10:45:16.214Z,100.00
2022-11-21T10:47:42.733Z,100.00
2022-11-21T10:50:08.945Z,100.00
2022-11-21T10:52:41.222Z,100.00
2022-11-21T10:55:09.204Z,100.00
2022-11-21T10:57:45.156Z,100.00
2022-11-21T11:00:11.396Z,100.00
2022-11-21T11:02:37.943Z,100.00
2022-11-21T11:05:17.794Z,100.00
2022-11-21T11:07:58.939Z,100.00
2022-11-21T11:10:27.940Z,100.00
2022-11-21T11:13:44.031Z,100.00
2022-11-21T11:16:19.546Z,100.00
2022-11-21T11:19:03.042Z,100.00
2022-11-21T11:21:30.254Z,100.00
2022-11-21T11:24:07.133Z,100.00
2022-11-21T11:26:33.431Z,100.00
2022-11-21T11:29:15.415Z,100.00
2022-11-21T11:31:42.708Z,100.00
2022-11-21T11:34:11.796Z,100.00
2022-11-21T11:36:44.437Z,100.00
2022-11-21T11:39:14.319Z,100.00
2022-11-21T11:42:16.637Z,100.00
2022-11-21T11:45:06.024Z,100.00
2022-11-21T11:47:33.747Z,100.00
2022-11-21T11:50:26.325Z,100.00
2022-11-21T11:52:55.986Z,100.00
2022-11-21T11:55:28.193Z,100.00
2022-11-21T11:57:56.516Z,100.00
2022-11-21T12:00:46.043Z,100.00
2022-11-21T12:03:12.455Z,100.00
2022-11-21T12:05:40.002Z,100.00
2022-11-21T12:08:41.540Z,100.00
2022-11-21T12:11:43.635Z,100.00
2022-11-21T12:14:42.804Z,100.00
2022-11-21T12:17:09.138Z,100.00
2022-11-21T12:19:36.264Z,100.00
2022-11-21T12:22:06.333Z,100.00
2022-11-21T12:24:36.072Z,100.00
2022-11-21T12:27:11.470Z,100.00
2022-11-21T12:29:48.593Z,100.00
2022-11-21T12:32:15.024Z,100.00
2022-11-21T12:34:41.284Z,100.00
2022-11-21T12:37:16.701Z,100.00
2022-11-21T12:39:49.883Z,100.00
2022-11-21T12:42:50.320Z,100.00
2022-11-21T12:45:28.602Z,100.00
2022-11-21T12:48:19.910Z,100.00
2022-11-21T12:51:04.777Z,100.00
2022-11-21T12:53:59.167Z,100.00
2022-11-21T12:56:38.885Z,100.00
2022-11-21T12:59:05.262Z,100.00
2022-11-21T13:01:35.724Z,100.00
2022-11-21T13:04:03.036Z,100.00
2022-11-21T13:06:30.309Z,100.00
2022-11-21T13:08:57.018Z,100.00
2022-11-21T13:11:48.281Z,100.00
2022-11-21T13:14:19.143Z,100.00
2022-11-21T13:16:48.463Z,100.00
2022-11-21T13:19:17.193Z,100.00
2022-11-21T13:21:50.093Z,100.00
2022-11-21T13:24:35.239Z,100.00
2022-11-21T13:27:04.403Z,100.00
2022-11-21T13:29:31.144Z,100.00
2022-11-21T13:31:57.596Z,100.00
2022-11-21T13:34:37.379Z,100.00
2022-11-21T13:37:04.593Z,100.00
2022-11-21T13:39:32.827Z,100.00
2022-11-21T13:42:24.509Z,100.00
2022-11-21T13:44:51.056Z,100.00
2022-11-21T13:47:26.550Z,100.00
2022-11-21T13:49:59.078Z,100.00
2022-11-21T13:52:44.143Z,100.00
2022-11-21T13:55:13.450Z,100.00
2022-11-21T13:57:59.947Z,100.00
2022-11-21T14:00:42.814Z,100.00
2022-11-21T14:03:29.093Z,100.00
2022-11-21T14:06:15.716Z,100.00
2022-11-21T14:08:43.689Z,100.00
2022-11-21T14:11:20.061Z,100.00
2022-11-21T14:13:47.080Z,100.00
2022-11-21T14:16:28.551Z,100.00
2022-11-21T14:18:54.860Z,100.00
2022-11-21T14:21:22.165Z,100.00
2022-11-21T14:23:48.566Z,100.00
2022-11-21T14:26:16.002Z,100.00
2022-11-21T14:28:42.302Z,100.00
2022-11-21T14:31:09.352Z,100.00
2022-11-21T14:33:36.395Z,100.00
2022-11-21T14:36:05.854Z,100.00
2022-11-21T14:38:40.330Z,100.00
2022-11-21T14:41:22.801Z,100.00
2022-11-21T14:43:49.211Z,100.00
2022-11-21T14:46:16.380Z,100.00
2022-11-21T14:48:42.786Z,100.00
2022-11-21T14:51:09.133Z,100.00
2022-11-21T14:53:35.467Z,100.00
2022-11-21T14:56:02.063Z,100.00
2022-11-21T14:58:28.420Z,100.00
2022-11-21T15:01:08.482Z,100.00
2022-11-21T15:03:34.840Z,100.00
2022-11-21T15:06:05.639Z,100.00
2022-11-21T15:09:10.295Z,100.00
2022-11-21T15:11:19.085Z,100.00
2022-11-21T15:14:12.408Z,100.00
2022-11-21T15:16:32.375Z,100.00
2022-11-21T15:18:58.792Z,100.00
2022-11-21T15:21:25.084Z,100.00
2022-11-21T15:23:51.546Z,100.00
2022-11-21T15:26:47.603Z,100.00
2022-11-21T15:32:06.883Z,100.00
2022-11-21T15:37:22.350Z,100.00
2022-11-21T15:39:49.827Z,100.00
2022-11-21T15:42:31.519Z,100.00
2022-11-21T15:45:01.125Z,100.00
2022-11-21T15:47:28.449Z,100.00
2022-11-21T15:49:54.895Z,100.00
2022-11-21T15:52:21.181Z,100.00
2022-11-21T15:54:48.244Z,100.00
2022-11-21T15:57:13.499Z,100.00
2022-11-21T15:57:16.738Z,100.00
2022-11-21T15:59:43.578Z,100.00
2022-11-21T16:02:11.296Z,100.00
2022-11-21T16:04:37.593Z,100.00
2022-11-21T16:07:03.998Z,100.00
2022-11-21T16:09:30.849Z,100.00
2022-11-21T16:11:57.297Z,100.00
2022-11-21T16:14:23.641Z,100.00
2022-11-21T16:16:49.927Z,100.00
2022-11-21T16:19:16.477Z,100.00
2022-11-21T16:21:42.777Z,100.00
2022-11-21T16:24:09.241Z,100.00
2022-11-21T16:26:35.742Z,100.00
2022-11-21T16:29:05.268Z,100.00
2022-11-21T16:31:31.749Z,100.00
2022-11-21T16:33:58.732Z,99.67
2022-11-21T16:36:25.792Z,99.87
2022-11-21T16:38:52.195Z,99.44
2022-11-21T16:41:21.999Z,98.68
2022-11-21T16:43:49.801Z,99.19
2022-11-21T16:46:16.453Z,98.71
2022-11-21T16:48:42.895Z,99.01
2022-11-21T16:51:15.466Z,99.57
2022-11-21T16:53:41.817Z,99.49
2022-11-21T16:56:08.367Z,99.41
2022-11-21T16:58:38.125Z,99.02
2022-11-21T17:01:08.406Z,98.60
2022-11-21T17:03:34.775Z,98.38
2022-11-21T17:06:01.222Z,97.87
2022-11-21T17:08:27.917Z,98.03
2022-11-21T17:10:54.504Z,97.67
2022-11-21T17:13:20.870Z,98.18
2022-11-21T17:15:47.187Z,97.84
2022-11-21T17:18:13.473Z,97.30
2022-11-21T17:20:39.785Z,97.57
2022-11-21T17:23:06.087Z,97.54
2022-11-21T17:25:32.516Z,97.60
2022-11-21T17:27:58.827Z,97.71
2022-11-21T17:30:25.198Z,97.79
2022-11-21T17:32:51.565Z,97.70
2022-11-21T17:35:18.155Z,98.13
2022-11-21T17:37:44.433Z,98.18
2022-11-21T17:40:12.033Z,98.41
2022-11-21T17:42:40.613Z,97.97
2022-11-21T17:45:07.530Z,97.91
2022-11-21T17:47:34.027Z,96.93
2022-11-21T17:50:05.557Z,97.15
2022-11-21T17:52:32.581Z,97.30
2022-11-21T17:54:58.945Z,97.16
2022-11-21T17:57:25.228Z,96.61
2022-11-21T17:59:51.676Z,97.09
2022-11-21T18:02:18.241Z,97.19
2022-11-21T18:04:44.720Z,96.40
2022-11-21T18:07:11.111Z,97.20
2022-11-21T18:09:37.508Z,96.35
2022-11-21T18:12:03.833Z,97.33
2022-11-21T18:14:30.706Z,97.08
2022-11-21T18:16:57.094Z,97.67
2022-11-21T18:19:24.152Z,97.70
2022-11-21T18:21:51.698Z,97.50
2022-11-21T18:24:18.039Z,97.00
2022-11-21T18:26:44.366Z,97.20
2022-11-21T18:29:35.153Z,97.98
2022-11-21T18:31:56.959Z,97.37
2022-11-21T18:34:23.266Z,97.45
2022-11-21T18:36:49.596Z,96.94
2022-11-21T18:39:16.028Z,97.66
2022-11-21T18:41:42.630Z,97.23
2022-11-21T18:44:09.761Z,98.33
2022-11-21T18:46:36.223Z,97.92
2022-11-21T18:49:05.946Z,97.52
2022-11-21T18:51:32.668Z,98.50
2022-11-21T18:54:05.050Z,98.80
2022-11-21T18:56:31.340Z,99.01
2022-11-21T18:58:59.113Z,100.00
2022-11-21T19:01:26.884Z,99.31
2022-11-21T19:03:53.437Z,99.44
2022-11-21T19:06:21.019Z,100.00
2022-11-21T19:08:52.079Z,99.67
2022-11-21T19:11:20.055Z,100.00
2022-11-21T19:13:46.960Z,100.00
2022-11-21T19:16:17.407Z,100.00
2022-11-21T19:18:48.476Z,100.00
2022-11-21T19:21:21.754Z,100.00
2022-11-21T19:23:48.154Z,100.00
2022-11-21T19:26:15.296Z,100.00
2022-11-21T19:28:42.074Z,100.00
2022-11-21T19:31:10.600Z,100.00
2022-11-21T19:33:37.126Z,100.00
2022-11-21T19:36:16.786Z,100.00
2022-11-21T19:38:49.132Z,100.00
2022-11-21T19:41:18.410Z,100.00
2022-11-21T19:43:45.498Z,100.00
2022-11-21T19:46:12.562Z,100.00
2022-11-21T19:48:38.931Z,100.00
2022-11-21T19:51:05.345Z,100.00
2022-11-21T19:53:35.857Z,100.00
2022-11-21T19:56:13.067Z,100.00
2022-11-21T19:58:39.625Z,100.00
2022-11-21T20:01:07.182Z,100.00
2022-11-21T20:03:34.135Z,100.00
2022-11-21T20:06:07.856Z,100.00
2022-11-21T20:08:34.413Z,100.00
2022-11-21T20:11:10.302Z,100.00
2022-11-21T20:13:37.296Z,100.00
2022-11-21T20:16:03.765Z,100.00
2022-11-21T20:18:30.116Z,100.00
2022-11-21T20:20:56.421Z,100.00
2022-11-21T20:23:22.760Z,100.00
2022-11-21T20:25:49.641Z,100.00
2022-11-21T20:28:16.022Z,100.00
2022-11-21T20:30:43.325Z,100.00
2022-11-21T20:33:11.426Z,100.00
2022-11-21T20:35:39.186Z,100.00
2022-11-21T20:38:05.788Z,100.00
2022-11-21T20:40:32.241Z,100.00
2022-11-21T20:42:58.538Z,100.00
2022-11-21T20:46:07.080Z,100.00
2022-11-21T20:48:15.893Z,100.00
2022-11-21T20:51:59.613Z,100.00
2022-11-21T20:53:51.978Z,100.00
2022-11-21T20:56:19.524Z,100.00
2022-11-21T20:58:45.978Z,100.00
2022-11-21T21:01:12.859Z,100.00
2022-11-21T21:03:39.314Z,100.00
2022-11-21T21:06:07.294Z,100.00
2022-11-21T21:08:34.217Z,100.00
2022-11-21T21:11:06.683Z,100.00
2022-11-21T21:13:33.456Z,100.00
2022-11-21T21:16:26.418Z,100.00
2022-11-21T21:18:53.588Z,100.00
2022-11-21T21:21:21.111Z,100.00
2022-11-21T21:23:48.432Z,100.00
2022-11-21T21:26:14.664Z,100.00
2022-11-21T21:28:41.210Z,100.00
2022-11-21T21:31:08.201Z,100.00
2022-11-21T21:33:34.559Z,100.00
2022-11-21T21:36:05.315Z,100.00
2022-11-21T21:38:31.623Z,100.00
2022-11-21T21:40:57.918Z,100.00
2022-11-21T21:43:24.216Z,100.00
2022-11-21T21:45:50.841Z,100.00
2022-11-21T21:48:17.143Z,99.23
2022-11-21T21:50:43.439Z,99.21
2022-11-21T21:53:09.815Z,98.89
2022-11-21T21:55:36.100Z,98.08
2022-11-21T21:58:02.404Z,97.95
2022-11-21T22:00:28.850Z,98.33
2022-11-21T22:02:55.153Z,97.62
2022-11-21T22:05:21.432Z,97.97
2022-11-21T22:07:47.780Z,98.41
2022-11-21T22:10:14.146Z,98.32
2022-11-21T22:12:43.990Z,98.94
2022-11-21T22:15:10.668Z,98.75
2022-11-21T22:17:36.965Z,99.28
2022-11-21T22:20:03.494Z,99.81
2022-11-21T22:22:30.864Z,99.92
2022-11-21T22:24:57.197Z,99.50
2022-11-21T22:27:23.488Z,100.00
2022-11-21T22:29:49.785Z,100.00
2022-11-21T22:32:19.653Z,100.00
2022-11-21T22:34:46.677Z,100.00
2022-11-21T22:37:12.983Z,100.00
2022-11-21T22:39:39.453Z,100.00
2022-11-21T22:42:05.749Z,100.00
2022-11-21T22:44:32.277Z,100.00
2022-11-21T22:46:58.749Z,100.00
2022-11-21T22:49:25.057Z,100.00
2022-11-21T22:51:51.344Z,100.00
2022-11-21T22:54:17.823Z,100.00
2022-11-21T22:56:44.153Z,100.00
2022-11-21T22:59:13.840Z,100.00
2022-11-21T23:01:40.227Z,100.00
2022-11-21T23:04:06.567Z,100.00
2022-11-21T23:06:33.122Z,100.00
2022-11-21T23:08:59.418Z,100.00
2022-11-21T23:11:27.484Z,100.00
2022-11-21T23:13:54.173Z,100.00
2022-11-21T23:16:21.096Z,100.00
2022-11-21T23:18:47.587Z,100.00
2022-11-21T23:21:13.999Z,100.00
2022-11-21T23:23:40.481Z,100.00
2022-11-21T23:26:06.798Z,100.00
2022-11-21T23:28:33.398Z,100.00
2022-11-21T23:30:59.721Z,100.00
2022-11-21T23:33:26.040Z,100.00
2022-11-21T23:35:52.334Z,100.00
2022-11-21T23:38:18.625Z,100.00
2022-11-21T23:40:46.042Z,100.00
2022-11-21T23:43:12.761Z,99.34
2022-11-21T23:45:39.065Z,100.00
2022-11-21T23:48:08.421Z,99.37
2022-11-21T23:50:34.721Z,99.17
2022-11-21T23:53:01.105Z,98.64
2022-11-21T23:55:27.642Z,98.92
2022-11-21T23:57:53.940Z,98.85
